createdAt,value
2019-04-23T04:53:37.998Z,16.15
2019-04-23T04:55:57.219Z,13.80
2019-04-23T05:10:55.736Z,14.68
2019-04-23T05:13:22.712Z,12.80
2019-04-23T05:15:44.906Z,12.50
2019-04-23T05:20:53.314Z,12.95
2019-04-23T05:26:02.813Z,15.60
2019-04-23T05:46:04.710Z,14.30
2019-04-23T05:48:37.597Z,17.42
2019-04-23T05:51:23.637Z,15.43
2019-04-23T05:53:45.091Z,13.43
2019-04-23T05:56:35.003Z,17.67
2019-04-23T05:58:52.998Z,14.13
2019-04-23T06:04:10.539Z,15.78
2019-04-23T06:06:45.203Z,20.23
2019-04-23T06:09:16.796Z,15.10
2019-04-23T06:14:18.717Z,15.05
2019-04-23T06:16:58.367Z,17.27
2019-04-23T06:19:21.544Z,14.60
2019-04-23T06:22:10.716Z,14.35
2019-04-23T06:29:39.535Z,16.67
2019-04-23T06:32:14.949Z,15.32
2019-04-23T06:34:48.397Z,14.70
2019-04-23T06:37:25.790Z,14.45
2019-04-23T06:39:55.105Z,14.25
2019-04-23T06:42:29.535Z,15.43
2019-04-23T06:45:01.245Z,14.50
2019-04-23T06:47:35.950Z,13.45
2019-04-23T06:50:06.718Z,16.48
2019-04-23T06:52:43.731Z,16.60
2019-04-23T06:55:25.402Z,13.85
2019-04-23T06:58:00.711Z,14.83
2019-04-23T07:00:29.360Z,17.02
2019-04-23T07:02:59.807Z,14.28
2019-04-23T07:05:37.930Z,14.00
2019-04-23T07:08:18.528Z,15.70
2019-04-23T07:10:54.392Z,14.58
2019-04-23T07:13:25.411Z,13.25
2019-04-23T07:16:01.284Z,15.55
2019-04-23T07:18:27.823Z,14.85
2019-04-23T07:21:06.772Z,17.62
2019-04-23T07:23:46.821Z,14.78
2019-04-23T07:26:26.033Z,16.35
2019-04-23T07:28:56.407Z,16.25
2019-04-23T07:33:57.594Z,16.82
2019-04-23T07:36:29.525Z,17.95
2019-04-23T07:44:24.586Z,17.30
2019-04-23T07:47:10.404Z,16.73
2019-04-23T07:49:23.628Z,18.12
2019-04-23T07:52:06.658Z,21.27
2019-04-23T07:54:32.586Z,17.30
2019-04-23T07:57:10.638Z,19.65
2019-04-23T07:59:43.736Z,17.25
2019-04-23T08:02:16.316Z,16.60
2019-04-23T08:04:56.595Z,18.35
2019-04-23T08:07:20.051Z,16.35
2019-04-23T08:09:58.095Z,20.27
2019-04-23T08:12:31.577Z,16.15
2019-04-23T08:15:07.422Z,16.12
2019-04-23T08:17:27.834Z,17.75
2019-04-23T08:20:09.545Z,18.48
2019-04-23T08:22:39.330Z,17.52
2019-04-23T08:25:19.113Z,16.85
2019-04-23T08:27:51.086Z,17.00
2019-04-23T08:30:24.098Z,23.05
2019-04-23T08:33:04.630Z,20.70
2019-04-23T08:35:36.171Z,16.77
2019-04-23T08:40:55.611Z,17.90
2019-04-23T08:43:33.046Z,17.48
2019-04-23T08:45:56.057Z,17.90
2019-04-23T08:51:09.615Z,17.12
2019-04-23T08:53:40.936Z,17.37
2019-04-23T08:56:11.428Z,17.60
2019-04-23T08:58:46.346Z,18.12
2019-04-23T09:01:17.253Z,18.32
2019-04-23T09:03:56.085Z,20.17
2019-04-23T09:06:47.885Z,18.07
2019-04-23T09:08:56.585Z,21.00
2019-04-23T09:14:15.870Z,17.42
2019-04-23T09:16:42.428Z,18.40
2019-04-23T09:19:23.445Z,20.62
2019-04-23T09:22:03.318Z,18.65
2019-04-23T09:24:27.676Z,19.10
2019-04-23T09:27:05.547Z,17.62
2019-04-23T09:29:51.510Z,17.37
2019-04-23T09:35:08.600Z,21.02
2019-04-23T09:37:35.342Z,18.95
2019-04-23T09:40:18.477Z,18.50
2019-04-23T09:42:47.815Z,18.60
2019-04-23T09:45:23.294Z,18.35
2019-04-23T09:47:57.082Z,17.75
2019-04-23T09:50:32.994Z,17.92
2019-04-23T09:53:13.115Z,18.32
2019-04-23T10:03:09.166Z,18.48
2019-04-23T10:05:39.132Z,19.32
2019-04-23T10:08:13.260Z,21.52
2019-04-23T10:10:36.534Z,19.87
2019-04-23T10:13:09.524Z,19.10
2019-04-23T10:15:44.555Z,19.65
2019-04-23T10:18:16.168Z,19.37
2019-04-23T10:20:49.059Z,22.02
2019-04-23T10:23:23.235Z,20.45
2019-04-23T10:25:56.284Z,21.30
2019-04-23T10:28:31.663Z,18.45
2019-04-23T10:31:04.876Z,18.98
2019-04-23T10:33:37.954Z,21.12
2019-04-23T10:36:15.009Z,19.35
2019-04-23T10:38:54.343Z,22.87
2019-04-23T10:41:20.105Z,19.82
2019-04-23T10:43:56.732Z,21.45
2019-04-23T10:46:54.447Z,19.02
2019-04-23T10:52:17.069Z,19.20
2019-04-23T11:02:40.134Z,20.45
2019-04-23T11:04:57.351Z,19.98
2019-04-23T11:07:30.730Z,27.22
2019-04-23T11:12:42.358Z,24.60
2019-04-23T11:15:27.170Z,26.37
2019-04-23T11:20:30.249Z,43.87
2019-04-23T11:22:51.562Z,47.05
2019-04-23T11:28:05.572Z,25.12
2019-04-23T11:30:41.619Z,21.65
2019-04-23T11:33:15.227Z,27.13
2019-04-23T11:36:01.747Z,25.17
2019-04-23T11:41:23.377Z,27.32
2019-04-23T11:46:22.874Z,22.75
2019-04-23T11:53:48.233Z,24.57
2019-04-23T11:56:35.345Z,28.60
2019-04-23T11:58:59.700Z,23.87
2019-04-23T12:01:42.814Z,28.15
2019-04-23T12:04:14.966Z,33.23
2019-04-23T12:06:38.831Z,44.20
2019-04-23T12:09:25.918Z,46.23
2019-04-23T12:22:18.048Z,29.12
2019-04-23T12:25:03.603Z,30.08
2019-04-23T12:27:23.250Z,35.88
2019-04-23T12:30:08.581Z,32.28
2019-04-23T12:35:04.248Z,45.12
2019-04-23T12:40:17.593Z,46.65
2019-04-23T12:55:36.340Z,38.02
2019-04-23T12:58:12.974Z,47.93
2019-04-23T13:00:37.061Z,52.20
2019-04-23T13:03:16.765Z,45.35
2019-04-23T13:05:35.864Z,47.67
2019-04-23T13:08:33.624Z,49.55
2019-04-23T13:11:03.426Z,51.85
2019-04-23T13:16:14.790Z,45.35
2019-04-23T13:18:40.740Z,39.58
2019-04-23T13:21:29.913Z,39.92
2019-04-23T13:23:49.421Z,43.38
2019-04-23T13:26:13.018Z,47.48
2019-04-23T13:28:52.872Z,44.48
2019-04-23T13:31:28.930Z,42.80
2019-04-23T13:34:08.533Z,39.67
2019-04-23T13:36:45.535Z,38.42
2019-04-23T13:39:17.977Z,37.85
2019-04-23T13:41:45.798Z,37.48
2019-04-23T13:44:27.658Z,39.58
2019-04-23T13:47:04.819Z,38.50
2019-04-23T13:49:37.413Z,35.10
2019-04-23T13:52:05.851Z,33.98
2019-04-23T13:57:48.834Z,31.95
2019-04-23T13:59:44.318Z,48.92
2019-04-23T14:04:58.392Z,28.73
2019-04-23T14:07:32.545Z,30.92
2019-04-23T14:10:11.903Z,29.57
2019-04-23T14:12:44.420Z,34.20
2019-04-23T14:15:16.289Z,30.10
2019-04-23T14:18:02.769Z,31.95
2019-04-23T14:20:21.525Z,32.35
2019-04-23T14:25:31.414Z,31.93
2019-04-23T14:28:19.781Z,32.80
2019-04-23T14:35:45.236Z,29.37
2019-04-23T14:38:27.636Z,30.00
2019-04-23T14:41:05.379Z,36.33
2019-04-23T14:51:16.116Z,35.08
2019-04-23T14:54:02.982Z,37.70
2019-04-23T14:56:16.117Z,37.83
2019-04-23T15:03:55.971Z,34.90
2019-04-23T15:06:46.387Z,30.15
2019-04-23T15:09:13.956Z,34.85
2019-04-23T15:14:17.203Z,31.75
2019-04-23T15:16:57.099Z,29.45
2019-04-23T15:29:33.552Z,33.08
2019-04-23T15:32:18.699Z,38.65
2019-04-23T15:34:57.566Z,37.93
2019-04-23T15:40:05.802Z,32.30
2019-04-23T15:42:34.819Z,33.00
2019-04-23T15:45:14.024Z,33.08
2019-04-23T15:55:22.563Z,31.37
2019-04-23T15:58:07.749Z,36.15
2019-04-23T16:00:30.905Z,35.92
2019-04-23T16:02:38.298Z,34.43
2019-04-23T16:05:14.505Z,31.45
2019-04-23T16:08:01.610Z,32.38
2019-04-23T16:11:00.647Z,33.90
2019-04-23T16:13:33.935Z,35.05
2019-04-23T16:16:03.601Z,42.67
2019-04-23T16:18:35.237Z,34.95
2019-04-23T16:21:10.238Z,33.58
2019-04-23T16:23:42.272Z,35.68
2019-04-23T16:26:21.086Z,32.28
2019-04-23T16:29:07.320Z,34.25
2019-04-23T16:31:27.675Z,36.88
2019-04-23T16:34:04.743Z,34.67
2019-04-23T16:36:32.878Z,39.13
2019-04-23T16:39:07.546Z,35.50
2019-04-23T16:41:40.471Z,34.25
2019-04-23T16:44:36.714Z,36.55
2019-04-23T16:46:54.139Z,34.85
2019-04-23T16:49:36.838Z,33.23
2019-04-23T16:51:59.200Z,37.40
2019-04-23T16:54:35.875Z,33.25
2019-04-23T16:59:35.295Z,33.58
2019-04-23T17:02:14.922Z,31.65
2019-04-23T17:04:46.812Z,36.17
2019-04-23T17:07:24.886Z,36.48
2019-04-23T17:10:00.607Z,32.45
2019-04-23T17:12:17.616Z,32.10
2019-04-23T17:15:05.384Z,30.27
2019-04-23T17:17:32.385Z,30.68
2019-04-23T17:27:55.848Z,34.25
2019-04-23T17:30:28.634Z,35.15
2019-04-23T17:33:11.047Z,36.45
2019-04-23T17:38:14.846Z,36.65
2019-04-23T17:40:53.294Z,43.17
2019-04-23T17:43:39.897Z,36.95
2019-04-23T17:45:57.251Z,34.48
2019-04-23T17:48:43.777Z,35.20
2019-04-23T17:51:09.612Z,35.40
2019-04-23T17:53:38.339Z,37.65
2019-04-23T18:06:37.286Z,39.30
2019-04-23T18:09:09.197Z,35.85
2019-04-23T18:11:52.606Z,37.75
2019-04-23T18:14:08.544Z,35.98
2019-04-23T18:16:51.197Z,39.35
2019-04-23T18:24:27.658Z,38.75
2019-04-23T18:27:05.178Z,42.15
2019-04-23T18:29:53.722Z,35.75
2019-04-23T18:32:16.121Z,41.25
2019-04-23T18:35:10.326Z,44.03
2019-04-23T18:37:27.749Z,42.08
2019-04-23T18:39:56.533Z,43.00
2019-04-23T18:45:10.497Z,37.80
2019-04-23T18:47:51.932Z,39.92
2019-04-23T18:50:19.511Z,39.35
2019-04-23T18:53:04.121Z,43.30
2019-04-23T18:55:37.134Z,42.83
2019-04-23T18:57:58.482Z,47.73
2019-04-23T19:00:41.429Z,42.15
2019-04-23T19:03:01.189Z,41.15
2019-04-23T19:08:48.945Z,40.85
2019-04-23T19:11:11.121Z,44.15
2019-04-23T19:13:24.950Z,40.90
2019-04-23T19:15:59.759Z,40.33
2019-04-23T19:18:35.992Z,40.17
2019-04-23T19:21:08.931Z,45.88
2019-04-23T19:24:04.732Z,42.95
2019-04-23T19:26:15.486Z,34.67
2019-04-23T19:29:02.843Z,36.60
2019-04-23T19:31:27.605Z,38.28
2019-04-23T19:34:05.900Z,39.58
2019-04-23T19:36:40.552Z,34.92
2019-04-23T19:39:11.133Z,37.45
2019-04-23T19:41:57.185Z,41.30
2019-04-23T19:44:15.987Z,42.73
2019-04-23T19:47:00.375Z,37.65
2019-04-23T19:54:52.562Z,41.88
2019-04-23T19:57:03.929Z,41.02
2019-04-23T20:02:17.487Z,42.75
2019-04-23T20:04:45.991Z,41.53
2019-04-23T20:07:33.112Z,43.63
2019-04-23T20:09:52.037Z,41.13
2019-04-23T20:12:32.105Z,38.53
2019-04-23T20:15:07.988Z,41.13
2019-04-23T20:17:53.061Z,38.80
2019-04-23T20:20:11.182Z,38.35
2019-04-23T20:22:48.529Z,37.53
2019-04-23T20:28:01.458Z,45.25
2019-04-23T20:30:54.988Z,41.85
2019-04-23T20:35:39.559Z,42.03
2019-04-23T20:38:33.395Z,41.40
2019-04-23T20:43:29.174Z,49.13
2019-04-23T20:46:00.056Z,44.30
2019-04-23T20:50:58.909Z,43.70
2019-04-23T20:53:40.340Z,49.23
2019-04-23T20:58:54.942Z,43.02
2019-04-23T21:03:55.503Z,44.95
2019-04-23T21:06:39.124Z,42.98
2019-04-23T21:09:28.223Z,50.35
2019-04-23T21:11:53.125Z,43.48
2019-04-23T21:14:49.311Z,47.20
2019-04-23T21:17:07.400Z,49.33
2019-04-23T21:19:52.588Z,48.40
2019-04-23T21:27:28.137Z,46.92
2019-04-23T21:29:58.262Z,48.87
2019-04-23T21:35:07.897Z,49.33
2019-04-23T21:37:51.258Z,54.58
2019-04-23T21:42:59.051Z,51.08
2019-04-23T21:45:24.439Z,54.95
2019-04-23T21:50:52.518Z,51.92
2019-04-23T21:53:07.133Z,55.50
2019-04-23T21:55:48.571Z,60.98
2019-04-23T21:58:20.028Z,59.10
2019-04-23T22:00:59.046Z,62.50
2019-04-23T22:03:29.284Z,64.82
2019-04-23T22:06:17.589Z,63.08
2019-04-23T22:08:36.904Z,62.33
2019-04-23T22:11:31.013Z,63.20
2019-04-23T22:13:55.381Z,61.95
2019-04-23T22:16:14.677Z,60.48
2019-04-23T22:21:26.153Z,63.95
2019-04-23T22:24:08.274Z,60.52
2019-04-23T22:26:36.255Z,60.48
2019-04-23T22:29:14.385Z,55.63
2019-04-23T22:36:51.757Z,53.42
2019-04-23T22:39:17.805Z,51.10
2019-04-23T22:41:58.231Z,53.10
2019-04-23T22:44:30.529Z,60.78
2019-04-23T22:49:41.759Z,56.70
2019-04-23T22:52:19.101Z,64.30
2019-04-23T22:54:51.353Z,61.30
2019-04-23T22:57:09.336Z,64.05
2019-04-23T23:00:04.509Z,64.15
2019-04-23T23:02:37.073Z,55.20
2019-04-23T23:07:48.849Z,57.30
2019-04-23T23:12:51.331Z,58.40
2019-04-23T23:15:24.155Z,63.63
2019-04-23T23:18:01.186Z,63.15
2019-04-23T23:20:33.037Z,70.90
2019-04-23T23:23:06.127Z,68.85
2019-04-23T23:25:30.479Z,62.80
2019-04-23T23:30:52.025Z,63.90
2019-04-23T23:35:54.180Z,62.25
2019-04-23T23:38:28.919Z,56.50
2019-04-23T23:41:03.681Z,55.85
2019-04-23T23:43:29.719Z,54.83
2019-04-23T23:46:15.230Z,52.48
2019-04-23T23:51:17.749Z,47.78
2019-04-23T23:54:00.396Z,48.75
2019-04-23T23:59:04.294Z,41.65
